createdAt,value
2024-03-28T00:01:59.255Z,49.96
2024-03-28T00:04:32.966Z,49.94
2024-03-28T00:07:06.355Z,50.65
2024-03-28T00:09:39.524Z,50.59
2024-03-28T00:12:13.342Z,50.56
2024-03-28T00:14:46.100Z,50.59
2024-03-28T00:17:18.995Z,50.33
2024-03-28T00:19:51.917Z,50.39
2024-03-28T00:22:25.344Z,50.79
2024-03-28T00:24:58.131Z,50.69
2024-03-28T00:27:30.877Z,50.55
2024-03-28T00:30:04.278Z,50.58
2024-03-28T00:32:37.042Z,50.91
2024-03-28T00:35:11.856Z,51.18
2024-03-28T00:37:44.655Z,51.12
2024-03-28T00:40:17.938Z,51.15
2024-03-28T00:42:51.037Z,50.82
2024-03-28T00:45:23.842Z,51.01
2024-03-28T00:47:56.720Z,51.30
2024-03-28T00:50:29.532Z,51.63
2024-03-28T00:53:02.346Z,51.30
2024-03-28T00:55:37.037Z,51.29
2024-03-28T00:58:09.984Z,51.38
2024-03-28T01:00:43.253Z,51.60
2024-03-28T01:03:16.667Z,51.73
2024-03-28T01:05:59.266Z,51.83
2024-03-28T01:08:32.008Z,51.96
2024-03-28T01:11:04.958Z,51.97
2024-03-28T01:13:38.906Z,52.31
2024-03-28T01:16:12.574Z,52.50
2024-03-28T01:18:45.592Z,52.63
2024-03-28T01:21:18.623Z,52.82
2024-03-28T01:23:51.522Z,52.89
2024-03-28T01:26:24.900Z,52.65
2024-03-28T01:28:58.218Z,52.64
2024-03-28T01:31:30.975Z,52.50
2024-03-28T01:34:03.943Z,52.72
2024-03-28T01:36:36.791Z,52.63
2024-03-28T01:39:09.572Z,52.58
2024-03-28T01:41:42.653Z,52.81
2024-03-28T01:44:15.986Z,52.88
2024-03-28T01:46:56.352Z,53.25
2024-03-28T01:49:42.744Z,53.10
2024-03-28T01:52:16.567Z,53.19
2024-03-28T01:54:49.839Z,53.01
2024-03-28T01:57:24.355Z,52.85
2024-03-28T01:59:57.525Z,53.31
2024-03-28T02:02:31.484Z,53.23
2024-03-28T02:05:04.190Z,53.37
2024-03-28T02:07:37.413Z,53.35
2024-03-28T02:10:12.476Z,53.73
2024-03-28T02:12:45.569Z,53.43
2024-03-28T02:15:18.437Z,53.30
2024-03-28T02:17:52.071Z,53.78
2024-03-28T02:20:24.994Z,53.35
2024-03-28T02:22:57.787Z,53.66
2024-03-28T02:25:30.771Z,53.39
2024-03-28T02:28:04.332Z,53.55
2024-03-28T02:30:37.562Z,53.99
2024-03-28T02:33:10.326Z,53.60
2024-03-28T02:35:44.158Z,53.26
2024-03-28T02:38:16.783Z,53.53
2024-03-28T02:40:52.270Z,53.77
2024-03-28T02:43:25.596Z,53.45
2024-03-28T02:45:58.542Z,53.33
2024-03-28T02:48:31.439Z,53.21
2024-03-28T02:51:04.207Z,53.13
2024-03-28T02:53:37.177Z,53.41
2024-03-28T02:56:10.913Z,53.36
2024-03-28T02:58:43.792Z,53.10
2024-03-28T03:01:16.577Z,53.08
2024-03-28T03:03:49.280Z,52.82
2024-03-28T03:06:22.089Z,52.83
2024-03-28T03:08:55.086Z,52.89
2024-03-28T03:11:27.985Z,52.82
2024-03-28T03:14:00.773Z,52.81
2024-03-28T03:16:33.566Z,52.86
2024-03-28T03:19:06.370Z,52.92
2024-03-28T03:21:39.230Z,52.82
2024-03-28T03:24:14.571Z,52.96
2024-03-28T03:26:51.840Z,52.69
2024-03-28T03:29:42.501Z,52.86
2024-03-28T03:32:29.436Z,52.83
2024-03-28T03:35:02.082Z,52.65
2024-03-28T03:37:35.492Z,52.41
2024-03-28T03:40:11.367Z,52.64
2024-03-28T03:42:44.575Z,52.27
2024-03-28T03:45:17.418Z,52.25
2024-03-28T03:47:50.292Z,51.85
2024-03-28T03:50:23.095Z,51.43
2024-03-28T03:52:56.273Z,51.22
2024-03-28T03:55:29.205Z,51.28
2024-03-28T03:58:02.439Z,51.01
2024-03-28T04:00:35.549Z,51.11
2024-03-28T04:03:08.698Z,50.78
2024-03-28T04:05:41.676Z,50.68
2024-03-28T04:08:14.845Z,50.41
2024-03-28T04:10:47.835Z,50.43
2024-03-28T04:13:20.777Z,50.30
2024-03-28T04:15:54.027Z,49.79
2024-03-28T04:18:28.071Z,49.34
2024-03-28T04:21:01.463Z,49.45
2024-03-28T04:23:34.534Z,48.16
2024-03-28T04:26:07.457Z,45.05
2024-03-28T04:28:40.673Z,40.49
2024-03-28T04:31:13.506Z,35.59
2024-03-28T04:33:46.353Z,31.33
2024-03-28T04:36:20.608Z,28.89
2024-03-28T04:38:54.275Z,26.03
2024-03-28T04:41:29.881Z,23.58
2024-03-28T04:44:02.614Z,21.30
2024-03-28T04:46:35.468Z,19.44
2024-03-28T04:49:08.262Z,17.66
2024-03-28T04:51:41.039Z,16.42
2024-03-28T04:54:13.738Z,15.11
2024-03-28T04:56:46.855Z,13.69
2024-03-28T04:59:19.765Z,12.70
2024-03-28T05:01:53.536Z,11.84
2024-03-28T05:04:26.510Z,11.04
2024-03-28T05:06:59.803Z,10.30
2024-03-28T05:09:33.186Z,9.63
2024-03-28T05:12:06.587Z,9.32
2024-03-28T05:14:39.695Z,8.60
2024-03-28T05:17:13.143Z,8.08
2024-03-28T05:19:46.185Z,7.62
2024-03-28T05:22:19.165Z,7.22
2024-03-28T05:24:52.029Z,6.90
2024-03-28T05:27:27.502Z,6.62
2024-03-28T05:30:01.764Z,6.12
2024-03-28T05:32:34.926Z,5.73
2024-03-28T05:35:10.082Z,5.51
2024-03-28T05:37:43.002Z,5.48
2024-03-28T05:40:16.123Z,5.00
2024-03-28T05:42:49.293Z,4.98
2024-03-28T05:45:22.307Z,4.78
2024-03-28T05:47:55.409Z,4.27
2024-03-28T05:50:29.016Z,4.17
2024-03-28T05:53:02.258Z,4.01
2024-03-28T05:55:36.820Z,4.27
2024-03-28T05:58:09.948Z,3.87
2024-03-28T06:00:43.125Z,3.60
2024-03-28T06:03:16.492Z,3.52
2024-03-28T06:05:49.583Z,3.49
2024-03-28T06:08:22.711Z,3.42
2024-03-28T06:10:55.968Z,3.19
2024-03-28T06:13:32.670Z,3.31
2024-03-28T06:16:06.898Z,3.15
2024-03-28T06:18:40.338Z,3.28
2024-03-28T06:21:11.285Z,2.93
2024-03-28T06:23:44.418Z,2.76
2024-03-28T06:26:15.681Z,2.62
2024-03-28T06:28:49.498Z,2.47
2024-03-28T06:31:23.627Z,2.49
2024-03-28T06:33:57.376Z,2.29
2024-03-28T06:36:30.257Z,1.95
2024-03-28T06:39:01.489Z,1.83
2024-03-28T06:41:34.334Z,1.78
2024-03-28T06:44:05.500Z,1.48
2024-03-28T06:46:38.295Z,1.93
2024-03-28T06:49:11.270Z,1.98
2024-03-28T06:51:43.918Z,1.95
2024-03-28T06:54:15.046Z,1.94
2024-03-28T06:56:49.221Z,1.87
2024-03-28T06:59:22.313Z,1.58
2024-03-28T07:01:56.121Z,1.51
2024-03-28T07:04:29.106Z,1.97
2024-03-28T07:07:00.368Z,1.79
2024-03-28T07:09:33.303Z,2.43
2024-03-28T07:12:07.362Z,2.47
2024-03-28T07:14:40.237Z,2.52
2024-03-28T07:17:13.270Z,2.47
2024-03-28T07:19:46.805Z,2.02
2024-03-28T07:22:19.906Z,2.03
2024-03-28T07:24:53.005Z,1.73
2024-03-28T07:27:26.021Z,1.78
2024-03-28T07:29:57.157Z,1.73
2024-03-28T07:32:30.201Z,1.57
2024-03-28T07:35:01.160Z,1.29
2024-03-28T07:37:34.044Z,1.32
2024-03-28T07:40:11.110Z,1.24
2024-03-28T07:42:43.855Z,1.28
2024-03-28T07:45:18.271Z,1.23
2024-03-28T07:47:51.302Z,1.08
2024-03-28T07:50:22.458Z,1.02
2024-03-28T07:52:55.309Z,1.07
2024-03-28T07:55:28.198Z,1.21
2024-03-28T07:58:00.899Z,0.95
2024-03-28T08:00:33.848Z,1.05
2024-03-28T08:03:07.262Z,1.05
2024-03-28T08:05:40.832Z,0.88
2024-03-28T08:08:13.576Z,0.96
2024-03-28T08:10:46.311Z,0.78
2024-03-28T08:13:19.268Z,1.12
2024-03-28T08:15:52.120Z,1.90
2024-03-28T08:18:25.394Z,2.54
2024-03-28T08:20:58.792Z,3.77
2024-03-28T08:23:31.824Z,4.39
2024-03-28T08:26:07.363Z,5.35
2024-03-28T08:28:44.711Z,6.49
2024-03-28T08:31:17.577Z,7.03
2024-03-28T08:33:53.349Z,8.00
2024-03-28T08:36:26.274Z,8.82
2024-03-28T08:38:59.743Z,9.83
2024-03-28T08:41:32.441Z,10.65
2024-03-28T08:44:05.459Z,11.12
2024-03-28T08:46:42.268Z,11.80
2024-03-28T08:49:16.090Z,12.17
2024-03-28T08:51:49.977Z,12.89
2024-03-28T08:54:25.458Z,13.21
2024-03-28T08:56:58.555Z,13.53
2024-03-28T08:59:31.377Z,13.95
2024-03-28T09:02:05.935Z,14.10
2024-03-28T09:04:40.407Z,14.42
2024-03-28T09:07:13.334Z,14.67
2024-03-28T09:09:48.799Z,15.16
2024-03-28T09:12:22.978Z,15.64
2024-03-28T09:14:59.112Z,15.86
2024-03-28T09:17:32.349Z,15.97
2024-03-28T09:20:07.023Z,16.30
2024-03-28T09:22:40.064Z,16.38
2024-03-28T09:25:13.945Z,16.47
2024-03-28T09:27:46.816Z,16.65
2024-03-28T09:30:22.291Z,16.53
2024-03-28T09:32:56.281Z,16.54
2024-03-28T09:35:29.289Z,16.59
2024-03-28T09:38:03.400Z,17.06
2024-03-28T09:40:41.734Z,17.13
2024-03-28T09:43:14.893Z,17.04
2024-03-28T09:45:49.710Z,16.99
2024-03-28T09:48:23.042Z,17.06
2024-03-28T09:50:56.856Z,17.09
2024-03-28T09:53:31.812Z,17.08
2024-03-28T09:56:04.897Z,17.07
2024-03-28T09:58:39.924Z,16.99
2024-03-28T10:01:12.989Z,17.18
2024-03-28T10:03:47.989Z,16.93
2024-03-28T10:06:20.714Z,16.86
2024-03-28T10:08:54.939Z,17.15
2024-03-28T10:11:27.868Z,17.21
2024-03-28T10:14:00.600Z,17.27
2024-03-28T10:16:33.362Z,17.22
2024-03-28T10:19:06.447Z,17.05
2024-03-28T10:21:39.784Z,17.94
2024-03-28T10:24:20.994Z,18.79
2024-03-28T10:26:54.688Z,18.36
2024-03-28T10:29:30.828Z,18.12
2024-03-28T10:32:10.009Z,17.87
2024-03-28T10:34:49.769Z,17.30
2024-03-28T10:37:27.195Z,17.37
2024-03-28T10:40:02.744Z,17.14
2024-03-28T10:42:36.731Z,17.14
2024-03-28T10:45:12.072Z,17.08
2024-03-28T10:47:45.099Z,17.06
2024-03-28T10:50:23.747Z,17.13
2024-03-28T10:52:59.483Z,17.15
2024-03-28T10:55:37.892Z,17.20
2024-03-28T10:58:11.833Z,17.01
2024-03-28T11:00:45.433Z,16.87
2024-03-28T11:03:19.446Z,16.87
2024-03-28T11:05:52.858Z,17.02
2024-03-28T11:08:25.860Z,17.06
2024-03-28T11:11:01.088Z,16.84
2024-03-28T11:13:34.084Z,16.95
2024-03-28T11:16:08.859Z,16.86
2024-03-28T11:18:43.814Z,16.73
2024-03-28T11:21:26.814Z,16.51
2024-03-28T11:23:59.707Z,16.57
2024-03-28T11:26:33.224Z,16.62
2024-03-28T11:29:07.129Z,16.75
2024-03-28T11:31:44.183Z,16.73
2024-03-28T11:34:29.293Z,16.88
2024-03-28T11:37:02.139Z,16.87
2024-03-28T11:39:35.696Z,16.83
2024-03-28T11:42:32.420Z,16.96
2024-03-28T11:45:14.504Z,16.68
2024-03-28T11:47:51.989Z,16.77
2024-03-28T11:50:27.966Z,16.60
2024-03-28T11:53:09.588Z,16.46
2024-03-28T11:55:44.539Z,16.54
2024-03-28T11:58:22.193Z,16.60
2024-03-28T12:01:01.686Z,16.37
2024-03-28T12:03:36.200Z,16.06
2024-03-28T12:06:09.834Z,16.13
2024-03-28T12:08:46.204Z,15.88
2024-03-28T12:11:19.943Z,15.81
2024-03-28T12:13:54.165Z,15.93
2024-03-28T12:16:27.200Z,16.28
2024-03-28T12:19:08.466Z,15.93
2024-03-28T12:21:42.106Z,15.74
2024-03-28T12:24:15.782Z,16.00
2024-03-28T12:26:49.327Z,15.93
2024-03-28T12:29:29.820Z,15.67
2024-03-28T12:32:10.144Z,15.87
2024-03-28T12:34:53.298Z,16.07
2024-03-28T12:37:30.001Z,15.98
2024-03-28T12:40:10.686Z,16.07
2024-03-28T12:42:51.375Z,16.07
2024-03-28T12:45:25.718Z,16.24
2024-03-28T12:47:58.824Z,16.31
2024-03-28T12:50:34.049Z,16.48
2024-03-28T12:53:08.165Z,16.60
2024-03-28T12:55:42.246Z,16.55
2024-03-28T12:58:16.579Z,16.57
2024-03-28T13:00:49.389Z,16.66
2024-03-28T13:03:22.932Z,16.84
2024-03-28T13:05:57.631Z,16.77
2024-03-28T13:08:30.892Z,16.88
2024-03-28T13:11:04.786Z,16.75
2024-03-28T13:13:39.436Z,16.99
2024-03-28T13:16:12.684Z,17.06
2024-03-28T13:18:49.390Z,17.08
2024-03-28T13:21:25.554Z,17.27
2024-03-28T13:24:00.179Z,17.22
2024-03-28T13:29:16.668Z,17.51
2024-03-28T13:31:50.534Z,17.56
2024-03-28T13:34:24.987Z,17.40
2024-03-28T13:36:59.385Z,17.16
2024-03-28T13:39:32.592Z,16.96
2024-03-28T13:42:06.326Z,17.08
2024-03-28T13:44:39.427Z,17.27
2024-03-28T13:47:13.502Z,16.93
2024-03-28T13:49:46.850Z,16.94
2024-03-28T13:52:23.968Z,16.98
2024-03-28T13:54:58.229Z,17.16
2024-03-28T13:57:32.413Z,16.85
2024-03-28T14:00:08.573Z,16.97
2024-03-28T14:02:41.954Z,17.04
2024-03-28T14:05:15.123Z,17.19
2024-03-28T14:07:48.479Z,17.38
2024-03-28T14:10:22.869Z,17.42
2024-03-28T14:12:56.276Z,17.49
2024-03-28T14:15:31.233Z,17.82
2024-03-28T14:18:05.043Z,18.04
2024-03-28T14:20:41.145Z,17.97
2024-03-28T14:23:18.231Z,17.73
2024-03-28T14:25:52.208Z,17.83
2024-03-28T14:28:25.600Z,17.81
2024-03-28T14:30:58.736Z,18.23
2024-03-28T14:33:34.335Z,18.30
2024-03-28T14:36:09.663Z,18.38
2024-03-28T14:38:43.530Z,18.39
2024-03-28T14:41:17.531Z,18.37
2024-03-28T14:43:50.924Z,18.65
2024-03-28T14:46:28.489Z,18.74
2024-03-28T14:49:01.926Z,18.98
2024-03-28T14:51:34.844Z,19.19
2024-03-28T14:54:08.472Z,19.48
2024-03-28T14:56:42.295Z,19.49
2024-03-28T14:59:15.230Z,19.73
2024-03-28T15:01:48.076Z,20.09
2024-03-28T15:04:26.902Z,20.48
2024-03-28T15:07:03.336Z,20.79
2024-03-28T15:09:37.013Z,21.12
2024-03-28T15:12:11.084Z,21.22
2024-03-28T15:14:44.473Z,21.52
2024-03-28T15:17:18.455Z,21.73
2024-03-28T15:19:51.519Z,22.02
2024-03-28T15:22:24.760Z,22.34
2024-03-28T15:25:00.830Z,22.68
2024-03-28T15:27:34.204Z,22.72
2024-03-28T15:30:08.325Z,23.01
2024-03-28T15:32:41.281Z,23.28
2024-03-28T15:35:14.765Z,23.85
2024-03-28T15:37:48.126Z,24.12
2024-03-28T15:40:21.794Z,24.37
2024-03-28T15:42:55.491Z,24.55
2024-03-28T15:45:28.626Z,24.87
2024-03-28T15:48:01.772Z,25.13
2024-03-28T15:50:36.882Z,25.34
2024-03-28T15:53:09.726Z,25.47
2024-03-28T15:55:45.403Z,25.65
2024-03-28T15:58:19.825Z,25.72
2024-03-28T16:00:52.810Z,25.70
2024-03-28T16:03:25.975Z,25.85
2024-03-28T16:05:58.958Z,25.96
2024-03-28T16:08:32.177Z,26.35
2024-03-28T16:11:05.140Z,26.25
2024-03-28T16:13:38.165Z,26.41
2024-03-28T16:16:11.573Z,26.63
2024-03-28T16:18:45.228Z,26.81
2024-03-28T16:21:18.087Z,27.10
2024-03-28T16:23:51.484Z,27.16
2024-03-28T16:26:24.619Z,27.45
2024-03-28T16:29:06.724Z,27.48
2024-03-28T16:31:43.831Z,27.66
2024-03-28T16:34:16.854Z,27.65
2024-03-28T16:36:49.738Z,27.78
2024-03-28T16:39:24.783Z,27.83
2024-03-28T16:41:57.767Z,28.00
2024-03-28T16:44:31.013Z,28.23
2024-03-28T16:47:09.572Z,28.35
2024-03-28T16:49:42.651Z,28.18
2024-03-28T16:52:15.927Z,28.33
2024-03-28T16:54:49.037Z,28.71
2024-03-28T16:57:22.104Z,28.93
2024-03-28T16:59:57.876Z,28.96
2024-03-28T17:02:31.352Z,28.92
2024-03-28T17:05:04.347Z,29.17
2024-03-28T17:07:40.666Z,29.23
2024-03-28T17:10:14.929Z,29.44
2024-03-28T17:12:48.024Z,29.87
2024-03-28T17:15:21.095Z,29.94
2024-03-28T17:17:54.584Z,29.94
2024-03-28T17:20:27.518Z,29.79
2024-03-28T17:23:00.441Z,29.49
2024-03-28T17:25:34.757Z,29.52
2024-03-28T17:28:08.518Z,29.74
2024-03-28T17:30:43.707Z,29.99
2024-03-28T17:33:17.677Z,30.19
2024-03-28T17:35:58.697Z,30.50
2024-03-28T17:38:31.683Z,30.71
2024-03-28T17:41:04.902Z,30.88
2024-03-28T17:43:37.908Z,31.30
2024-03-28T17:46:11.037Z,31.74
2024-03-28T17:48:43.756Z,32.01
2024-03-28T17:51:16.597Z,32.02
2024-03-28T17:53:50.604Z,32.06
2024-03-28T17:56:23.347Z,32.24
2024-03-28T17:58:57.219Z,32.32
2024-03-28T18:01:32.875Z,32.52
2024-03-28T18:04:10.622Z,32.47
2024-03-28T18:06:43.568Z,32.67
2024-03-28T18:09:20.803Z,33.03
2024-03-28T18:11:53.660Z,32.93
2024-03-28T18:14:26.977Z,33.25
2024-03-28T18:17:00.278Z,33.26
2024-03-28T18:19:33.700Z,33.11
2024-03-28T18:22:07.095Z,33.28
2024-03-28T18:24:40.763Z,33.58
2024-03-28T18:27:13.574Z,33.83
2024-03-28T18:29:46.548Z,33.60
2024-03-28T18:32:19.827Z,33.85
2024-03-28T18:34:53.029Z,33.73
2024-03-28T18:37:26.150Z,33.86
2024-03-28T18:39:59.246Z,34.05
2024-03-28T18:42:32.546Z,34.22
2024-03-28T18:45:05.948Z,34.52
2024-03-28T18:47:38.982Z,34.64
2024-03-28T18:50:13.023Z,35.00
2024-03-28T18:52:47.215Z,35.16
2024-03-28T18:55:20.574Z,35.45
2024-03-28T18:57:53.820Z,35.62
2024-03-28T19:00:27.547Z,35.76
2024-03-28T19:03:01.469Z,35.98
2024-03-28T19:05:39.231Z,36.13
2024-03-28T19:08:13.282Z,36.43
2024-03-28T19:10:48.052Z,36.24
2024-03-28T19:13:22.299Z,36.64
2024-03-28T19:15:58.060Z,36.88
2024-03-28T19:18:31.888Z,37.02
2024-03-28T19:21:05.691Z,37.21
2024-03-28T19:23:38.970Z,37.20
2024-03-28T19:26:14.289Z,37.43
2024-03-28T19:28:48.228Z,37.78
2024-03-28T19:31:22.994Z,37.56
2024-03-28T19:33:58.035Z,37.81
2024-03-28T19:36:35.223Z,37.79
2024-03-28T19:39:11.652Z,38.08
2024-03-28T19:41:44.763Z,38.19
2024-03-28T19:44:17.669Z,38.25
2024-03-28T19:46:54.939Z,38.70
2024-03-28T19:49:27.857Z,38.79
2024-03-28T19:52:01.051Z,38.82
2024-03-28T19:54:37.889Z,38.91
2024-03-28T19:57:11.077Z,39.14
2024-03-28T19:59:43.966Z,39.10
2024-03-28T20:02:16.867Z,39.20
2024-03-28T20:04:58.808Z,39.35
2024-03-28T20:07:32.911Z,39.66
2024-03-28T20:10:08.003Z,39.85
2024-03-28T20:12:44.051Z,39.94
2024-03-28T20:15:16.908Z,40.24
2024-03-28T20:17:49.898Z,40.27
2024-03-28T20:20:23.383Z,40.17
2024-03-28T20:22:56.355Z,40.44
2024-03-28T20:25:30.229Z,40.63
2024-03-28T20:28:04.608Z,40.57
2024-03-28T20:30:38.166Z,41.06
2024-03-28T20:33:12.036Z,41.07
2024-03-28T20:35:47.690Z,41.26
2024-03-28T20:38:20.512Z,41.61
2024-03-28T20:40:57.326Z,41.75
2024-03-28T20:43:30.246Z,41.74
2024-03-28T20:46:07.883Z,41.72
2024-03-28T20:48:40.727Z,41.96
2024-03-28T20:51:20.026Z,42.20
2024-03-28T20:53:53.217Z,42.37
2024-03-28T20:56:25.966Z,42.55
2024-03-28T20:58:59.653Z,42.38
2024-03-28T21:01:33.172Z,42.84
2024-03-28T21:04:08.897Z,42.73
2024-03-28T21:07:07.686Z,42.94
2024-03-28T21:10:07.705Z,43.16
2024-03-28T21:12:40.824Z,43.54
2024-03-28T21:15:13.583Z,43.76
2024-03-28T21:17:46.377Z,43.63
2024-03-28T21:20:20.041Z,43.92
2024-03-28T21:22:53.768Z,44.20
2024-03-28T21:25:26.533Z,44.22
2024-03-28T21:28:00.899Z,44.05
2024-03-28T21:30:34.866Z,44.09
2024-03-28T21:33:08.317Z,44.20
2024-03-28T21:35:41.710Z,44.40
2024-03-28T21:38:14.581Z,44.34
2024-03-28T21:40:57.000Z,44.59
2024-03-28T21:43:30.331Z,44.55
2024-03-28T21:46:04.179Z,44.82
2024-03-28T21:48:39.061Z,44.77
2024-03-28T21:51:12.075Z,44.86
2024-03-28T21:53:45.089Z,44.99
2024-03-28T21:56:20.981Z,45.53
2024-03-28T21:58:53.663Z,45.48
2024-03-28T22:01:26.663Z,45.73
2024-03-28T22:03:59.454Z,45.96
2024-03-28T22:06:35.345Z,46.19
2024-03-28T22:09:10.068Z,46.36
2024-03-28T22:11:43.718Z,46.44
2024-03-28T22:14:16.647Z,46.45
2024-03-28T22:16:54.479Z,46.75
2024-03-28T22:19:33.889Z,46.99
2024-03-28T22:22:07.178Z,46.85
2024-03-28T22:24:40.285Z,47.08
2024-03-28T22:27:15.292Z,47.07
2024-03-28T22:29:47.982Z,47.44
2024-03-28T22:32:21.062Z,47.49
2024-03-28T22:34:55.688Z,47.46
2024-03-28T22:37:28.823Z,47.60
2024-03-28T22:40:02.146Z,47.48
2024-03-28T22:42:37.102Z,47.83
2024-03-28T22:45:11.834Z,47.55
2024-03-28T22:47:45.140Z,47.58
2024-03-28T22:50:18.653Z,47.74
2024-03-28T22:52:51.562Z,47.86
2024-03-28T22:55:24.904Z,47.85
2024-03-28T22:57:57.842Z,47.70
2024-03-28T23:00:34.650Z,47.97
2024-03-28T23:03:08.410Z,48.20
2024-03-28T23:05:41.338Z,48.38
2024-03-28T23:08:14.711Z,48.48
2024-03-28T23:10:53.549Z,48.75
2024-03-28T23:13:26.799Z,48.69
2024-03-28T23:16:00.059Z,48.56
2024-03-28T23:18:33.312Z,48.68
2024-03-28T23:21:06.936Z,48.65
2024-03-28T23:23:41.416Z,48.55
2024-03-28T23:26:14.413Z,48.77
2024-03-28T23:28:48.668Z,48.98
2024-03-28T23:31:21.378Z,48.98
2024-03-28T23:33:54.824Z,49.15
2024-03-28T23:36:28.222Z,49.29
2024-03-28T23:39:01.642Z,49.30
2024-03-28T23:41:35.124Z,49.41
2024-03-28T23:44:08.630Z,49.52
2024-03-28T23:46:41.395Z,49.47
2024-03-28T23:49:15.273Z,49.60
2024-03-28T23:51:48.128Z,49.59
2024-03-28T23:54:21.887Z,49.70
2024-03-28T23:56:54.546Z,49.72
2024-03-28T23:59:27.900Z,49.81
